Aérodrome :
LOGIN :

S'inscrire | Disclaimer

   EN    FR    IT 

 










Légende :    VFR   VFR Marginal   IFR   IFR Intensif   IFR Très Intensif
Visi : 
Plafond : 
>= 8 km
>= 3000ft
5 à 8 km
1000 à 3000 ft
1500m à 5 km
500 à 1000 ft
800 à 1500m
200 à 500 ft
< 800m
< 200 ft
Symboles :   Orages  Brouillard  Fortes neiges  Fortes précipitations  Vent > 20 kt
SIGMETs :   Divers  Orages  Givrage  Turbulence  Onde Orograph.  Cendres Volcan.






- Altitude de l'aérodrome : 125 ft
- Code IATA : MGL


EDLN - Mönchengladbach

DERNIER METAR :
  • 290950Z 17005KT 130V210 9999 BKN030 11/07 Q1015

METARs EXPIRÉS :
  • 290920Z 14004KT 110V170 9999 BKN023 09/06 Q1015
  • 290850Z 16004KT 100V190 9999 OVC020 09/06 Q1015
  • 290820Z 13004KT 100V160 9999 OVC019 08/05 Q1015
  • 290750Z 13005KT 110V170 9999 OVC019 08/05 Q1015
  • 290720Z 15005KT 9999 OVC021 07/05 Q1015

TAF TAF EDLN
Valide du 29 à 09h jusqu'au 29 à 18h UTC


290800Z 2909/2918 15005KT 9999 BKN020
BECMG 2909/2911 21005KT



MET'MAP, la Météo Aéronautique d'un coup d'oeil ! - Copyright ORBIFLY Décembre 2007 - Disclaimer

ORBIFLY MET'MAP TEAM :

Programmation & Développement : Alexandra Zaïnal
Sur une idée originale de : Baudouin d'Aumeries
Soutien technique & logistique : Manuel Goepfert
Assistance : Marc-Olivier Méhu




SOURCES & CREDITS :

   NOAA